createdAt,value
2023-03-20T00:02:01.827Z,57.90
2023-03-20T00:04:29.674Z,63.33
2023-03-20T00:06:56.814Z,68.83
2023-03-20T00:09:25.749Z,66.13
2023-03-20T00:11:55.619Z,60.10
2023-03-20T00:14:24.818Z,56.37
2023-03-20T00:16:52.461Z,59.03
2023-03-20T00:19:25.981Z,62.07
2023-03-20T00:21:55.030Z,70.27
2023-03-20T00:24:23.615Z,65.93
2023-03-20T00:26:52.150Z,56.90
2023-03-20T00:29:26.768Z,64.57
2023-03-20T00:31:54.929Z,59.33
2023-03-20T00:34:24.389Z,56.97
2023-03-20T00:36:52.501Z,62.17
2023-03-20T00:39:20.545Z,65.40
2023-03-20T00:41:54.416Z,64.30
2023-03-20T00:44:29.947Z,61.93
2023-03-20T00:47:00.628Z,68.10
2023-03-20T00:49:32.558Z,62.07
2023-03-20T00:51:59.768Z,57.20
2023-03-20T00:54:27.110Z,59.57
2023-03-20T00:57:06.456Z,59.67
2023-03-20T00:59:38.133Z,60.07
2023-03-20T01:02:06.300Z,61.33
2023-03-20T01:04:38.943Z,61.10
2023-03-20T01:07:07.581Z,61.77
2023-03-20T01:09:34.822Z,56.27
2023-03-20T01:12:03.251Z,60.00
2023-03-20T01:14:30.690Z,55.70
2023-03-20T01:16:57.649Z,51.23
2023-03-20T01:19:24.903Z,51.67
2023-03-20T01:21:51.915Z,59.77
2023-03-20T01:24:19.115Z,59.27
2023-03-20T01:26:46.913Z,54.67
2023-03-20T01:29:22.016Z,56.13
2023-03-20T01:31:50.067Z,54.60
2023-03-20T01:34:17.800Z,59.20
2023-03-20T01:36:53.471Z,50.63
2023-03-20T01:39:24.282Z,58.07
2023-03-20T01:41:52.866Z,55.93
2023-03-20T01:44:24.281Z,59.70
2023-03-20T01:46:55.454Z,51.47
2023-03-20T01:49:22.623Z,56.27
2023-03-20T01:51:51.816Z,54.97
2023-03-20T01:54:23.675Z,48.13
2023-03-20T01:56:57.271Z,50.93
2023-03-20T01:59:36.446Z,50.63
2023-03-20T02:02:05.051Z,46.50
2023-03-20T02:04:38.536Z,50.87
2023-03-20T02:07:07.302Z,47.87
2023-03-20T02:09:34.577Z,50.60
2023-03-20T02:12:02.661Z,54.03
2023-03-20T02:14:31.637Z,49.17
2023-03-20T02:16:58.794Z,55.07
2023-03-20T02:19:38.925Z,49.93
2023-03-20T02:22:24.425Z,55.07
2023-03-20T02:25:29.488Z,53.77
2023-03-20T02:28:35.726Z,51.10
2023-03-20T02:31:40.625Z,58.57
2023-03-20T02:34:29.769Z,50.60
2023-03-20T02:37:02.758Z,49.60
2023-03-20T02:40:01.001Z,50.57
2023-03-20T02:42:39.874Z,53.70
2023-03-20T02:45:31.142Z,58.13
2023-03-20T02:48:19.533Z,51.03
2023-03-20T02:51:02.958Z,54.17
2023-03-20T02:53:39.750Z,54.10
2023-03-20T02:56:34.054Z,51.13
2023-03-20T02:59:35.474Z,51.53
2023-03-20T03:02:12.800Z,55.23
2023-03-20T03:04:50.080Z,53.00
2023-03-20T03:07:21.361Z,50.77
2023-03-20T03:10:02.308Z,51.33
2023-03-20T03:12:46.005Z,54.53
2023-03-20T03:15:30.595Z,51.67
2023-03-20T03:17:59.333Z,53.60
2023-03-20T03:20:32.679Z,47.13
2023-03-20T03:23:00.446Z,52.23
2023-03-20T03:25:33.142Z,52.27
2023-03-20T03:28:04.716Z,56.07
2023-03-20T03:30:37.156Z,47.23
2023-03-20T03:33:19.730Z,47.33
2023-03-20T03:35:48.430Z,49.33
2023-03-20T03:38:40.404Z,50.57
2023-03-20T03:41:29.882Z,54.73
2023-03-20T03:44:17.706Z,62.17
2023-03-20T03:47:04.944Z,50.63
2023-03-20T03:49:36.694Z,47.47
2023-03-20T03:52:09.192Z,53.37
2023-03-20T03:55:02.860Z,51.30
2023-03-20T03:57:37.931Z,51.30
2023-03-20T04:00:07.102Z,51.23
2023-03-20T04:02:35.398Z,51.97
2023-03-20T04:05:04.186Z,57.53
2023-03-20T04:07:31.538Z,48.47
2023-03-20T04:09:58.732Z,47.93
2023-03-20T04:12:32.990Z,54.07
2023-03-20T04:15:02.897Z,51.37
2023-03-20T04:17:30.602Z,50.37
2023-03-20T04:19:57.701Z,46.83
2023-03-20T04:22:24.994Z,46.77
2023-03-20T04:24:52.734Z,50.40
2023-03-20T04:27:21.053Z,56.43
2023-03-20T04:29:48.148Z,52.73
2023-03-20T04:32:15.424Z,62.37
2023-03-20T04:34:42.381Z,54.63
2023-03-20T04:37:09.666Z,62.77
2023-03-20T04:39:37.489Z,49.67
2023-03-20T04:42:05.643Z,49.87
2023-03-20T04:44:32.828Z,62.57
2023-03-20T04:47:01.335Z,54.33
2023-03-20T04:49:28.830Z,56.70
2023-03-20T04:51:56.535Z,49.23
2023-03-20T04:54:23.555Z,53.07
2023-03-20T04:56:50.856Z,48.50
2023-03-20T04:59:18.141Z,54.63
2023-03-20T05:01:45.489Z,53.30
2023-03-20T05:04:12.632Z,57.67
2023-03-20T05:06:40.192Z,50.47
2023-03-20T05:09:07.165Z,53.80
2023-03-20T05:11:34.373Z,55.13
2023-03-20T05:14:01.308Z,47.93
2023-03-20T05:16:28.593Z,59.17
2023-03-20T05:18:55.815Z,54.30
2023-03-20T05:21:23.041Z,58.37
2023-03-20T05:23:50.333Z,52.23
2023-03-20T05:26:17.604Z,61.50
2023-03-20T05:28:44.547Z,62.43
2023-03-20T05:31:12.016Z,61.63
2023-03-20T05:33:39.109Z,62.90
2023-03-20T05:36:07.551Z,60.03
2023-03-20T05:38:34.524Z,61.10
2023-03-20T05:41:02.004Z,56.03
2023-03-20T05:43:29.260Z,48.53
2023-03-20T05:45:56.924Z,54.17
2023-03-20T05:48:24.534Z,53.83
2023-03-20T05:50:51.840Z,59.90
2023-03-20T05:53:18.864Z,56.67
2023-03-20T05:55:46.308Z,59.83
2023-03-20T05:58:13.421Z,55.40
2023-03-20T06:00:40.823Z,51.23
2023-03-20T06:03:08.027Z,63.07
2023-03-20T06:05:36.604Z,56.33
2023-03-20T06:08:04.979Z,52.17
2023-03-20T06:10:32.243Z,53.50
2023-03-20T06:13:01.294Z,59.00
2023-03-20T06:15:29.425Z,49.63
2023-03-20T06:17:57.248Z,46.43
2023-03-20T06:20:24.956Z,51.83
2023-03-20T06:22:52.390Z,46.73
2023-03-20T06:25:20.701Z,51.27
2023-03-20T06:27:48.244Z,55.23
2023-03-20T06:30:16.209Z,49.77
2023-03-20T06:32:43.600Z,50.10
2023-03-20T06:35:13.526Z,53.60
2023-03-20T06:37:40.493Z,49.93
2023-03-20T06:40:08.565Z,51.97
2023-03-20T06:42:35.798Z,55.43
2023-03-20T06:45:03.224Z,43.77
2023-03-20T06:47:30.745Z,45.70
2023-03-20T06:49:58.017Z,42.73
2023-03-20T06:52:25.316Z,47.00
2023-03-20T06:54:52.658Z,56.30
2023-03-20T06:57:20.160Z,42.70
2023-03-20T07:48:12.807Z,43.53
2023-03-20T07:50:40.271Z,42.33
2023-03-20T07:53:07.973Z,42.53
2023-03-20T07:55:35.757Z,42.97
2023-03-20T07:58:03.041Z,38.83
2023-03-20T08:00:31.379Z,41.97
2023-03-20T08:02:58.474Z,43.53
2023-03-20T08:05:26.418Z,42.77
2023-03-20T08:07:53.637Z,38.93
2023-03-20T08:10:21.091Z,37.47
2023-03-20T08:12:48.141Z,37.00
2023-03-20T08:15:15.937Z,44.40
2023-03-20T08:17:46.534Z,40.43
2023-03-20T08:20:14.946Z,36.90
2023-03-20T08:22:42.803Z,39.93
2023-03-20T08:25:10.635Z,36.00
2023-03-20T08:27:38.807Z,36.87
2023-03-20T08:30:07.218Z,42.90
2023-03-20T08:32:34.295Z,41.90
2023-03-20T08:35:01.641Z,38.97
2023-03-20T08:37:28.639Z,38.20
2023-03-20T08:39:55.882Z,34.17
2023-03-20T08:42:23.023Z,28.60
2023-03-20T08:44:50.555Z,32.10
2023-03-20T08:47:17.602Z,29.33
2023-03-20T08:49:44.890Z,33.73
2023-03-20T08:52:11.850Z,33.07
2023-03-20T08:54:39.108Z,31.50
2023-03-20T08:57:06.205Z,30.73
2023-03-20T08:59:33.602Z,28.83
2023-03-20T09:02:00.877Z,29.27
2023-03-20T09:04:28.289Z,32.53
2023-03-20T09:06:55.327Z,30.93
2023-03-20T09:09:42.512Z,24.60
2023-03-20T09:12:31.569Z,25.03
2023-03-20T09:15:33.383Z,34.10
2023-03-20T09:18:20.668Z,27.92
2023-03-20T09:20:48.904Z,28.43
2023-03-20T09:23:56.082Z,27.60
2023-03-20T09:26:43.034Z,23.53
2023-03-20T09:29:44.927Z,26.10
2023-03-20T09:32:13.594Z,21.73
2023-03-20T09:35:43.032Z,26.73
2023-03-20T09:38:45.619Z,28.77
2023-03-20T09:41:56.615Z,24.67
2023-03-20T09:44:45.618Z,23.90
2023-03-20T09:47:27.947Z,26.13
2023-03-20T09:50:13.152Z,23.40
2023-03-20T09:53:31.122Z,25.17
2023-03-20T09:56:24.323Z,27.97
2023-03-20T09:59:37.304Z,28.47
2023-03-20T10:02:42.883Z,30.20
2023-03-20T10:05:25.522Z,26.57
2023-03-20T10:07:55.978Z,29.07
2023-03-20T10:10:50.689Z,32.40
2023-03-20T10:13:49.409Z,32.80
2023-03-20T10:16:57.954Z,28.13
2023-03-20T10:19:41.088Z,28.00
2023-03-20T10:22:32.914Z,25.37
2023-03-20T10:25:19.658Z,27.63
2023-03-20T10:27:52.743Z,24.37
2023-03-20T10:30:25.617Z,25.10
2023-03-20T10:33:25.146Z,25.60
2023-03-20T10:35:57.613Z,23.03
2023-03-20T10:38:48.838Z,30.17
2023-03-20T10:41:23.336Z,24.60
2023-03-20T10:43:53.431Z,31.43
2023-03-20T10:46:28.969Z,32.33
2023-03-20T10:49:17.258Z,29.60
2023-03-20T10:51:54.054Z,36.77
2023-03-20T10:54:36.801Z,34.37
2023-03-20T10:57:06.128Z,32.93
2023-03-20T10:59:39.338Z,29.57
2023-03-20T11:02:11.621Z,34.13
2023-03-20T11:04:53.483Z,31.70
2023-03-20T11:07:38.306Z,31.47
2023-03-20T11:10:20.487Z,32.93
2023-03-20T11:12:49.759Z,32.60
2023-03-20T11:15:25.830Z,37.63
2023-03-20T11:17:54.435Z,36.47
2023-03-20T11:20:21.832Z,32.23
2023-03-20T11:22:50.775Z,34.50
2023-03-20T11:25:29.471Z,31.47
2023-03-20T11:28:33.117Z,40.03
2023-03-20T11:31:08.187Z,37.27
2023-03-20T11:33:38.924Z,36.63
2023-03-20T11:36:27.787Z,38.70
2023-03-20T11:39:01.938Z,41.37
2023-03-20T11:41:29.473Z,35.20
2023-03-20T11:43:56.506Z,42.70
2023-03-20T11:46:25.351Z,41.50
2023-03-20T11:49:17.328Z,68.00
2023-03-20T11:51:44.708Z,37.80
2023-03-20T11:54:17.114Z,31.60
2023-03-20T11:56:55.685Z,33.90
2023-03-20T11:59:32.236Z,35.53
2023-03-20T12:02:01.999Z,28.70
2023-03-20T12:04:34.081Z,38.10
2023-03-20T12:07:24.546Z,33.33
2023-03-20T12:09:58.372Z,34.07
2023-03-20T12:12:49.507Z,37.03
2023-03-20T12:15:28.278Z,32.57
2023-03-20T12:18:01.405Z,34.60
2023-03-20T12:20:39.630Z,33.40
2023-03-20T12:23:13.260Z,37.57
2023-03-20T12:25:52.445Z,34.77
2023-03-20T12:28:48.356Z,34.73
2023-03-20T12:31:42.200Z,38.23
2023-03-20T12:34:26.707Z,32.47
2023-03-20T12:36:58.005Z,34.27
2023-03-20T12:39:31.875Z,31.20
2023-03-20T12:42:09.637Z,34.50
2023-03-20T12:44:51.475Z,34.70
2023-03-20T12:47:39.820Z,32.03
2023-03-20T12:50:10.117Z,33.40
2023-03-20T12:52:37.014Z,33.93
2023-03-20T12:55:13.573Z,37.43
2023-03-20T12:58:17.245Z,32.37
2023-03-20T13:00:51.089Z,34.43
2023-03-20T13:03:24.021Z,37.40
2023-03-20T13:06:15.789Z,33.80
2023-03-20T13:08:48.898Z,30.03
2023-03-20T13:11:36.919Z,37.87
2023-03-20T13:14:16.288Z,34.50
2023-03-20T13:16:55.397Z,37.10
2023-03-20T13:19:38.387Z,35.27
2023-03-20T13:22:24.214Z,36.67
2023-03-20T13:24:55.310Z,30.00
2023-03-20T13:27:49.123Z,28.97
2023-03-20T13:30:34.712Z,27.50
2023-03-20T13:33:20.182Z,29.60
2023-03-20T13:35:59.258Z,30.73
2023-03-20T13:38:40.433Z,28.33
2023-03-20T13:41:10.156Z,27.03
2023-03-20T13:43:58.760Z,28.00
2023-03-20T13:46:39.416Z,27.37
2023-03-20T13:49:42.487Z,29.97
2023-03-20T13:52:21.233Z,34.80
2023-03-20T13:55:27.179Z,30.97
2023-03-20T13:58:12.580Z,33.13
2023-03-20T14:00:59.756Z,37.87
2023-03-20T14:03:37.670Z,43.57
2023-03-20T14:06:43.512Z,40.37
2023-03-20T14:09:30.810Z,34.67
2023-03-20T14:12:10.616Z,41.10
2023-03-20T14:14:54.913Z,40.17
2023-03-20T14:17:30.864Z,32.67
2023-03-20T14:20:16.568Z,32.37
2023-03-20T14:22:45.470Z,34.63
2023-03-20T14:25:20.867Z,33.20
2023-03-20T14:28:09.510Z,38.37
2023-03-20T14:30:36.862Z,36.67
2023-03-20T14:33:13.309Z,30.27
2023-03-20T14:35:46.501Z,33.13
2023-03-20T14:38:35.969Z,29.10
2023-03-20T14:41:27.996Z,27.33
2023-03-20T14:44:15.761Z,30.50
2023-03-20T14:46:42.673Z,29.23
2023-03-20T14:49:51.094Z,32.70
2023-03-20T14:52:23.830Z,26.57
2023-03-20T14:54:54.994Z,25.80
2023-03-20T14:57:48.813Z,27.60
2023-03-20T15:00:26.640Z,28.77
2023-03-20T15:03:02.412Z,28.37
2023-03-20T15:05:33.926Z,30.83
2023-03-20T15:08:10.276Z,31.87
2023-03-20T15:10:46.591Z,27.27
2023-03-20T15:13:15.248Z,25.50
2023-03-20T15:16:07.098Z,21.67
2023-03-20T15:18:42.981Z,23.57
2023-03-20T15:21:37.655Z,19.70
2023-03-20T15:24:05.614Z,23.80
2023-03-20T15:26:35.564Z,26.07
2023-03-20T15:29:16.074Z,23.90
2023-03-20T15:31:43.331Z,18.00
2023-03-20T15:34:19.438Z,19.63
2023-03-20T15:36:47.333Z,19.87
2023-03-20T15:39:20.746Z,23.40
2023-03-20T15:41:56.013Z,19.13
2023-03-20T15:44:27.423Z,20.77
2023-03-20T15:47:10.748Z,18.33
2023-03-20T15:49:42.946Z,18.80
2023-03-20T15:52:25.954Z,16.63
2023-03-20T15:54:54.503Z,18.40
2023-03-20T15:57:36.120Z,15.87
2023-03-20T16:00:34.181Z,17.60
2023-03-20T16:03:04.226Z,22.53
2023-03-20T16:05:31.921Z,18.73
2023-03-20T16:08:13.170Z,15.10
2023-03-20T16:10:43.121Z,15.87
2023-03-20T16:13:17.158Z,15.30
2023-03-20T16:15:44.615Z,12.53
2023-03-20T16:18:16.507Z,12.60
2023-03-20T16:21:06.322Z,13.07
2023-03-20T16:23:37.821Z,13.63
2023-03-20T16:26:13.267Z,12.57
2023-03-20T16:28:40.575Z,10.90
2023-03-20T16:31:16.493Z,12.63
2023-03-20T16:33:44.964Z,12.03
2023-03-20T16:36:22.641Z,10.13
2023-03-20T16:39:08.565Z,10.60
2023-03-20T16:41:40.548Z,13.63
2023-03-20T16:44:11.499Z,11.17
2023-03-20T16:46:53.934Z,12.90
2023-03-20T16:49:29.732Z,12.83
2023-03-20T16:52:02.662Z,11.10
2023-03-20T16:54:34.628Z,13.37
2023-03-20T16:57:04.001Z,13.47
2023-03-20T16:59:31.446Z,13.50
2023-03-20T17:02:01.714Z,12.77
2023-03-20T17:04:38.842Z,12.10
2023-03-20T17:07:25.438Z,13.00
2023-03-20T17:09:59.886Z,9.90
2023-03-20T17:12:31.194Z,11.53
2023-03-20T17:14:58.512Z,9.47
2023-03-20T17:17:26.453Z,10.20
2023-03-20T17:19:53.928Z,10.77
2023-03-20T17:22:22.776Z,13.17
2023-03-20T17:24:50.833Z,11.93
2023-03-20T17:27:19.611Z,14.77
2023-03-20T17:29:49.743Z,19.93
2023-03-20T17:32:23.939Z,18.97
2023-03-20T17:34:51.896Z,19.83
2023-03-20T17:37:30.092Z,19.60
2023-03-20T17:39:57.890Z,21.40
2023-03-20T17:42:31.199Z,21.37
2023-03-20T17:44:59.845Z,20.77
2023-03-20T17:47:28.448Z,27.87
2023-03-20T17:49:56.043Z,25.93
2023-03-20T17:52:26.526Z,23.30
2023-03-20T17:54:54.796Z,24.43
2023-03-20T17:57:37.238Z,22.97
2023-03-20T18:00:08.745Z,25.27
2023-03-20T18:02:35.940Z,23.23
2023-03-20T18:05:03.283Z,23.93
2023-03-20T18:07:30.427Z,28.77
2023-03-20T18:09:57.830Z,25.77
2023-03-20T18:12:24.858Z,27.87
2023-03-20T18:14:52.252Z,25.97
2023-03-20T18:17:19.214Z,30.53
2023-03-20T18:19:46.602Z,29.77
2023-03-20T18:22:13.657Z,34.33
2023-03-20T18:24:43.330Z,29.43
2023-03-20T18:27:11.926Z,33.67
2023-03-20T18:29:39.486Z,29.97
2023-03-20T18:32:06.693Z,27.67
2023-03-20T18:34:33.985Z,30.43
2023-03-20T18:37:01.397Z,33.27
2023-03-20T18:39:28.765Z,33.80
2023-03-20T18:41:55.881Z,31.43
2023-03-20T18:44:23.195Z,31.00
2023-03-20T18:46:50.342Z,32.93
2023-03-20T18:49:19.175Z,34.37
2023-03-20T18:51:46.569Z,35.00
2023-03-20T18:54:13.874Z,33.43
2023-03-20T18:56:41.141Z,33.20
2023-03-20T18:59:12.475Z,31.33
2023-03-20T19:01:39.652Z,32.87
2023-03-20T19:04:07.075Z,35.83
2023-03-20T19:06:34.407Z,34.37
2023-03-20T19:09:05.280Z,32.50
2023-03-20T19:11:32.543Z,30.17
2023-03-20T19:13:59.857Z,34.33
2023-03-20T19:16:35.270Z,27.47
2023-03-20T19:19:04.483Z,29.57
2023-03-20T19:21:33.570Z,29.60
2023-03-20T19:24:06.052Z,29.30
2023-03-20T19:26:35.280Z,28.27
2023-03-20T19:29:08.296Z,28.23
2023-03-20T19:31:35.943Z,28.57
2023-03-20T19:34:03.489Z,29.37
2023-03-20T19:36:36.327Z,30.53
2023-03-20T19:39:06.387Z,33.07
2023-03-20T19:41:34.166Z,29.70
2023-03-20T19:44:01.770Z,41.63
2023-03-20T19:46:39.768Z,38.77
2023-03-20T19:49:20.330Z,33.60
2023-03-20T19:51:48.819Z,34.93
2023-03-20T19:54:16.757Z,42.47
2023-03-20T19:56:43.741Z,38.13
2023-03-20T19:59:11.079Z,44.77
2023-03-20T20:01:38.216Z,45.83
2023-03-20T20:04:05.954Z,45.70
2023-03-20T20:06:33.396Z,43.53
2023-03-20T20:09:01.428Z,43.73
2023-03-20T20:11:29.238Z,45.53
2023-03-20T20:16:45.347Z,50.07
2023-03-20T20:19:12.887Z,47.50
2023-03-20T20:24:27.419Z,49.37
2023-03-20T20:27:14.785Z,49.37
2023-03-20T20:29:43.600Z,47.17
2023-03-20T20:32:10.693Z,44.87
2023-03-20T20:38:14.019Z,44.30
2023-03-20T20:40:16.940Z,42.97
2023-03-20T20:42:47.501Z,46.37
2023-03-20T20:45:15.488Z,43.70
2023-03-20T20:47:44.891Z,48.70
2023-03-20T20:50:14.252Z,50.40
2023-03-20T20:52:42.371Z,43.97
2023-03-20T20:55:22.506Z,41.87
2023-03-20T20:57:52.043Z,38.93
2023-03-20T21:00:21.377Z,39.30
2023-03-20T21:02:48.383Z,41.03
2023-03-20T21:05:17.483Z,42.63
2023-03-20T21:07:46.350Z,39.43
2023-03-20T21:10:16.760Z,39.63
2023-03-20T21:12:58.124Z,44.87
2023-03-20T21:15:27.420Z,36.93
2023-03-20T21:18:00.952Z,39.00
2023-03-20T21:20:30.568Z,35.00
2023-03-20T21:22:57.695Z,37.03
2023-03-20T21:25:38.673Z,33.93
2023-03-20T21:28:07.542Z,32.33
2023-03-20T21:30:34.838Z,28.20
2023-03-20T21:33:02.726Z,29.70
2023-03-20T21:35:30.001Z,29.20
2023-03-20T21:40:45.031Z,28.07
2023-03-20T21:43:12.621Z,29.63
2023-03-20T21:49:29.942Z,26.67
2023-03-20T21:57:39.565Z,25.77
2023-03-20T22:00:14.929Z,30.33
2023-03-20T22:02:28.172Z,29.77
2023-03-20T22:34:05.994Z,30.53
2023-03-20T22:36:33.221Z,29.47
2023-03-20T22:39:14.032Z,31.20
2023-03-20T22:42:06.897Z,32.40
2023-03-20T22:46:55.676Z,32.00
2023-03-20T22:49:22.705Z,31.13
2023-03-20T22:52:11.210Z,29.57
2023-03-20T22:54:38.802Z,27.73
2023-03-20T22:57:06.444Z,33.17
2023-03-20T22:59:33.406Z,32.53
2023-03-20T23:02:00.802Z,29.30
2023-03-20T23:04:29.951Z,33.10
2023-03-20T23:06:57.358Z,31.60
2023-03-20T23:09:24.302Z,31.83
2023-03-20T23:11:51.588Z,33.27
2023-03-20T23:14:21.588Z,33.80
2023-03-20T23:16:50.442Z,32.93
2023-03-20T23:19:17.610Z,34.47
2023-03-20T23:21:44.989Z,32.53
2023-03-20T23:24:12.006Z,31.47
2023-03-20T23:26:39.312Z,31.03
2023-03-20T23:29:06.483Z,32.70
2023-03-20T23:31:33.838Z,30.27
2023-03-20T23:34:00.972Z,36.37
2023-03-20T23:36:36.587Z,35.80
2023-03-20T23:39:09.610Z,31.90
2023-03-20T23:44:25.027Z,32.17
2023-03-20T23:46:52.350Z,36.80
2023-03-20T23:49:19.298Z,36.10
2023-03-20T23:51:46.872Z,35.20
2023-03-20T23:54:13.896Z,35.33
2023-03-20T23:56:41.168Z,35.03
2023-03-20T23:59:20.582Z,32.57
